createdAt,value
2023-05-04T00:02:13.902Z,78.53
2023-05-04T00:04:43.184Z,78.88
2023-05-04T00:07:12.096Z,79.11
2023-05-04T00:09:39.078Z,79.30
2023-05-04T00:12:07.949Z,79.18
2023-05-04T00:14:36.816Z,78.96
2023-05-04T00:17:06.061Z,79.27
2023-05-04T00:19:39.008Z,79.13
2023-05-04T00:22:05.924Z,79.42
2023-05-04T00:24:34.113Z,79.34
2023-05-04T00:27:02.506Z,79.04
2023-05-04T00:29:30.750Z,78.99
2023-05-04T00:31:58.755Z,78.48
2023-05-04T00:34:27.470Z,78.85
2023-05-04T00:36:55.511Z,78.93
2023-05-04T00:39:22.710Z,79.45
2023-05-04T00:41:51.059Z,79.75
2023-05-04T00:44:18.026Z,79.78
2023-05-04T00:46:46.816Z,80.03
2023-05-04T00:49:14.221Z,80.78
2023-05-04T00:51:41.495Z,81.40
2023-05-04T00:54:09.596Z,81.67
2023-05-04T00:56:41.614Z,81.52
2023-05-04T00:59:09.188Z,82.07
2023-05-04T01:01:36.964Z,82.06
2023-05-04T01:04:04.569Z,82.50
2023-05-04T01:06:56.091Z,82.99
2023-05-04T01:09:53.380Z,83.26
2023-05-04T01:12:34.256Z,83.02
2023-05-04T01:15:01.353Z,82.38
2023-05-04T01:17:29.478Z,81.98
2023-05-04T01:19:56.390Z,81.72
2023-05-04T01:22:26.120Z,81.99
2023-05-04T01:24:55.315Z,82.43
2023-05-04T01:27:35.782Z,82.58
2023-05-04T01:30:36.852Z,82.50
2023-05-04T01:33:05.247Z,82.59
2023-05-04T01:35:32.940Z,82.54
2023-05-04T01:38:00.780Z,82.86
2023-05-04T01:40:29.117Z,83.08
2023-05-04T01:42:57.423Z,83.28
2023-05-04T01:45:29.241Z,83.41
2023-05-04T01:47:57.283Z,83.26
2023-05-04T01:50:24.290Z,83.26
2023-05-04T01:52:52.334Z,83.46
2023-05-04T01:55:19.426Z,83.46
2023-05-04T01:57:46.633Z,83.34
2023-05-04T02:00:16.639Z,83.28
2023-05-04T02:02:43.917Z,83.09
2023-05-04T02:05:14.871Z,83.07
2023-05-04T02:07:41.751Z,83.32
2023-05-04T02:10:08.867Z,83.20
2023-05-04T02:12:36.187Z,83.51
2023-05-04T02:15:04.808Z,83.42
2023-05-04T02:17:34.679Z,83.42
2023-05-04T02:20:05.240Z,83.71
2023-05-04T02:22:33.135Z,84.17
2023-05-04T02:25:00.535Z,84.28
2023-05-04T02:27:33.920Z,84.27
2023-05-04T02:30:01.422Z,84.31
2023-05-04T02:32:32.451Z,84.61
2023-05-04T02:35:02.611Z,84.98
2023-05-04T02:37:30.438Z,84.93
2023-05-04T02:39:59.139Z,84.97
2023-05-04T02:42:26.877Z,85.03
2023-05-04T02:44:55.137Z,85.08
2023-05-04T02:47:22.595Z,84.99
2023-05-04T02:49:53.424Z,85.01
2023-05-04T02:52:23.445Z,85.17
2023-05-04T02:54:52.994Z,85.03
2023-05-04T02:57:37.742Z,85.25
2023-05-04T03:00:30.646Z,85.21
2023-05-04T03:03:07.783Z,85.70
2023-05-04T03:05:41.804Z,85.78
2023-05-04T03:08:13.153Z,85.40
2023-05-04T03:10:42.267Z,84.92
2023-05-04T03:13:12.318Z,84.72
2023-05-04T03:15:40.393Z,84.85
2023-05-04T03:18:08.691Z,84.05
2023-05-04T03:20:37.637Z,83.51
2023-05-04T03:23:05.565Z,83.50
2023-05-04T03:25:32.477Z,82.25
2023-05-04T03:28:02.594Z,81.68
2023-05-04T03:30:29.801Z,81.32
2023-05-04T03:32:57.891Z,80.26
2023-05-04T03:35:29.653Z,79.28
2023-05-04T03:37:58.358Z,78.69
2023-05-04T03:40:25.786Z,78.13
2023-05-04T03:42:54.499Z,77.87
2023-05-04T03:45:23.191Z,77.06
2023-05-04T03:47:52.457Z,75.97
2023-05-04T03:50:26.273Z,74.80
2023-05-04T03:52:55.533Z,73.70
2023-05-04T03:55:26.365Z,73.00
2023-05-04T03:57:53.536Z,72.20
2023-05-04T04:00:27.152Z,71.55
2023-05-04T04:03:45.419Z,71.61
2023-05-04T04:06:15.821Z,70.65
2023-05-04T04:09:11.727Z,70.00
2023-05-04T04:11:46.818Z,68.92
2023-05-04T04:14:17.116Z,69.15
2023-05-04T04:16:51.028Z,69.26
2023-05-04T04:19:57.697Z,69.12
2023-05-04T04:22:31.079Z,67.29
2023-05-04T04:25:23.880Z,67.07
2023-05-04T04:27:58.815Z,67.64
2023-05-04T04:30:53.632Z,66.41
2023-05-04T04:33:48.303Z,66.75
2023-05-04T04:36:18.865Z,66.18
2023-05-04T04:38:47.880Z,65.96
2023-05-04T04:41:19.423Z,66.03
2023-05-04T04:43:48.096Z,65.26
2023-05-04T04:46:15.847Z,65.81
2023-05-04T04:48:47.221Z,65.46
2023-05-04T04:51:25.075Z,64.71
2023-05-04T04:53:56.663Z,64.51
2023-05-04T04:56:23.905Z,64.42
2023-05-04T04:58:51.454Z,63.90
2023-05-04T05:01:29.094Z,64.32
2023-05-04T05:03:59.056Z,62.89
2023-05-04T05:06:29.780Z,62.00
2023-05-04T05:09:01.453Z,62.36
2023-05-04T05:11:29.916Z,61.81
2023-05-04T05:14:00.956Z,61.35
2023-05-04T05:16:48.461Z,60.34
2023-05-04T05:19:19.045Z,60.13
2023-05-04T05:22:29.927Z,59.68
2023-05-04T05:24:59.159Z,58.65
2023-05-04T05:27:28.787Z,58.96
2023-05-04T05:29:57.067Z,58.30
2023-05-04T05:32:41.258Z,54.63
2023-05-04T05:35:17.559Z,54.37
2023-05-04T05:37:48.898Z,53.37
2023-05-04T05:40:44.469Z,53.08
2023-05-04T05:43:38.241Z,52.14
2023-05-04T05:46:36.648Z,48.93
2023-05-04T05:49:13.358Z,48.90
2023-05-04T05:52:06.170Z,50.13
2023-05-04T05:54:45.859Z,48.30
2023-05-04T05:57:52.252Z,46.43
2023-05-04T06:00:39.890Z,46.70
2023-05-04T06:03:15.816Z,45.63
2023-05-04T06:05:54.841Z,45.27
2023-05-04T06:08:24.897Z,44.56
2023-05-04T06:10:58.795Z,43.56
2023-05-04T06:13:28.382Z,44.09
2023-05-04T06:15:57.249Z,43.19
2023-05-04T06:18:27.615Z,44.00
2023-05-04T06:21:00.128Z,42.59
2023-05-04T06:23:32.207Z,41.14
2023-05-04T06:26:29.744Z,41.02
2023-05-04T06:29:01.168Z,43.40
2023-05-04T06:31:55.985Z,42.59
2023-05-04T06:34:36.222Z,38.65
2023-05-04T06:37:26.864Z,38.43
2023-05-04T06:39:59.560Z,38.19
2023-05-04T06:42:33.552Z,35.89
2023-05-04T06:45:04.778Z,35.40
2023-05-04T06:47:43.648Z,35.21
2023-05-04T06:50:36.574Z,33.42
2023-05-04T06:53:13.295Z,33.35
2023-05-04T06:55:56.222Z,33.43
2023-05-04T06:59:17.182Z,31.95
2023-05-04T07:02:05.693Z,30.08
2023-05-04T07:04:35.885Z,30.51
2023-05-04T07:07:09.002Z,30.53
2023-05-04T07:09:39.281Z,30.32
2023-05-04T07:12:08.592Z,31.02
2023-05-04T07:14:43.871Z,32.61
2023-05-04T07:17:13.681Z,31.48
2023-05-04T07:19:45.704Z,32.06
2023-05-04T07:22:24.085Z,31.70
2023-05-04T07:24:52.529Z,32.04
2023-05-04T07:27:23.787Z,31.01
2023-05-04T07:30:22.656Z,29.75
2023-05-04T07:32:51.902Z,30.09
2023-05-04T07:35:29.103Z,29.92
2023-05-04T07:38:05.834Z,30.46
2023-05-04T07:40:44.806Z,30.92
2023-05-04T07:43:30.150Z,31.80
2023-05-04T07:46:01.196Z,31.62
2023-05-04T07:48:43.602Z,31.16
2023-05-04T07:51:15.060Z,30.53
2023-05-04T07:53:47.672Z,31.57
2023-05-04T07:56:26.163Z,30.24
2023-05-04T07:58:57.844Z,30.62
2023-05-04T08:01:26.767Z,31.40
2023-05-04T08:03:56.460Z,31.58
2023-05-04T08:06:32.249Z,30.46
2023-05-04T08:09:06.105Z,30.41
2023-05-04T08:11:45.855Z,30.74
2023-05-04T08:14:16.309Z,32.15
2023-05-04T08:16:51.928Z,33.42
2023-05-04T08:21:27.101Z,32.81
2023-05-04T08:24:05.873Z,30.84
2023-05-04T08:26:43.797Z,30.53
2023-05-04T08:29:14.164Z,30.31
2023-05-04T08:31:44.386Z,29.54
2023-05-04T08:34:11.688Z,29.61
2023-05-04T08:36:41.346Z,30.91
2023-05-04T08:39:12.210Z,30.69
2023-05-04T08:41:56.818Z,30.81
2023-05-04T08:44:26.222Z,30.20
2023-05-04T08:46:54.524Z,29.93
2023-05-04T08:49:23.007Z,30.36
2023-05-04T08:51:50.790Z,30.00
2023-05-04T08:54:20.041Z,30.62
2023-05-04T08:56:48.069Z,30.28
2023-05-04T08:59:19.956Z,30.22
2023-05-04T09:01:52.418Z,30.53
2023-05-04T09:04:29.820Z,30.64
2023-05-04T09:06:59.795Z,32.12
2023-05-04T09:09:29.430Z,31.49
2023-05-04T09:11:58.876Z,32.08
2023-05-04T09:14:49.465Z,32.38
2023-05-04T09:17:29.587Z,32.87
2023-05-04T09:20:03.838Z,32.58
2023-05-04T09:22:36.166Z,33.30
2023-05-04T09:25:12.919Z,34.53
2023-05-04T09:27:43.339Z,34.88
2023-05-04T09:30:13.823Z,34.64
2023-05-04T09:32:50.300Z,35.03
2023-05-04T09:35:31.834Z,35.79
2023-05-04T09:38:00.995Z,35.45
2023-05-04T09:40:36.196Z,35.56
2023-05-04T09:43:06.478Z,35.45
2023-05-04T09:45:46.166Z,36.46
2023-05-04T09:48:27.350Z,36.43
2023-05-04T09:51:03.352Z,36.12
2023-05-04T09:53:31.104Z,36.10
2023-05-04T09:56:24.472Z,36.19
2023-05-04T09:58:52.320Z,36.86
2023-05-04T10:01:23.376Z,37.42
2023-05-04T10:03:56.588Z,36.97
2023-05-04T10:06:24.758Z,37.21
2023-05-04T10:08:57.031Z,37.29
2023-05-04T10:11:26.555Z,37.50
2023-05-04T10:13:58.057Z,38.02
2023-05-04T10:16:46.068Z,38.44
2023-05-04T10:20:02.018Z,39.06
2023-05-04T10:23:01.310Z,38.70
2023-05-04T10:25:52.483Z,38.97
2023-05-04T10:29:09.378Z,38.44
2023-05-04T10:32:16.874Z,38.86
2023-05-04T10:34:59.064Z,38.65
2023-05-04T10:37:27.961Z,38.54
2023-05-04T10:39:59.387Z,38.69
2023-05-04T10:42:28.351Z,38.30
2023-05-04T10:45:05.824Z,38.44
2023-05-04T10:47:41.028Z,38.57
2023-05-04T10:50:16.196Z,38.43
2023-05-04T10:52:59.540Z,38.60
2023-05-04T10:55:28.408Z,38.90
2023-05-04T10:58:19.719Z,38.35
2023-05-04T11:00:49.442Z,37.48
2023-05-04T11:03:18.532Z,37.98
2023-05-04T11:05:59.858Z,38.43
2023-05-04T11:08:29.008Z,38.03
2023-05-04T11:11:08.722Z,38.47
2023-05-04T11:13:45.023Z,37.93
2023-05-04T11:16:16.160Z,37.73
2023-05-04T11:18:43.521Z,38.15
2023-05-04T11:21:11.381Z,38.13
2023-05-04T11:23:38.716Z,38.14
2023-05-04T11:26:08.671Z,37.42
2023-05-04T11:28:39.838Z,37.42
2023-05-04T11:31:27.326Z,37.79
2023-05-04T11:33:56.811Z,37.17
2023-05-04T11:36:25.276Z,36.54
2023-05-04T11:38:52.702Z,36.64
2023-05-04T11:41:20.621Z,37.09
2023-05-04T11:43:48.120Z,36.90
2023-05-04T11:46:18.251Z,37.09
2023-05-04T11:48:47.453Z,37.43
2023-05-04T11:51:15.742Z,36.80
2023-05-04T11:53:42.906Z,37.58
2023-05-04T11:56:10.326Z,37.51
2023-05-04T11:58:37.610Z,37.68
2023-05-04T12:01:06.075Z,37.75
2023-05-04T12:03:52.141Z,37.61
2023-05-04T12:06:41.485Z,37.72
2023-05-04T12:09:08.649Z,37.82
2023-05-04T12:11:38.474Z,38.28
2023-05-04T12:14:07.169Z,37.32
2023-05-04T12:16:46.803Z,37.61
2023-05-04T12:19:14.017Z,37.66
2023-05-04T12:21:58.957Z,37.63
2023-05-04T12:24:30.535Z,37.29
2023-05-04T12:26:59.454Z,37.37
2023-05-04T12:29:26.864Z,37.50
2023-05-04T12:31:55.423Z,36.09
2023-05-04T12:34:22.824Z,35.73
2023-05-04T12:36:53.202Z,35.64
2023-05-04T12:39:21.103Z,35.27
2023-05-04T12:41:48.623Z,35.29
2023-05-04T12:44:16.968Z,35.24
2023-05-04T12:46:44.593Z,35.12
2023-05-04T12:49:14.668Z,34.67
2023-05-04T12:51:43.217Z,34.59
2023-05-04T12:54:11.220Z,34.69
2023-05-04T12:56:41.387Z,34.80
2023-05-04T12:59:09.301Z,34.76
2023-05-04T13:01:42.162Z,34.57
2023-05-04T13:04:10.843Z,34.02
2023-05-04T13:06:38.063Z,33.62
2023-05-04T13:09:08.928Z,33.34
2023-05-04T13:11:36.152Z,33.41
2023-05-04T13:14:04.180Z,33.50
2023-05-04T13:16:31.329Z,33.89
2023-05-04T13:19:01.761Z,34.03
2023-05-04T13:21:32.540Z,34.14
2023-05-04T13:24:08.066Z,34.10
2023-05-04T13:26:36.407Z,33.81
2023-05-04T13:29:06.470Z,34.49
2023-05-04T13:31:33.897Z,34.80
2023-05-04T13:34:03.633Z,34.34
2023-05-04T13:36:31.555Z,34.52
2023-05-04T13:39:02.250Z,34.72
2023-05-04T13:41:32.009Z,35.02
2023-05-04T13:43:59.202Z,34.97
2023-05-04T13:46:26.847Z,35.33
2023-05-04T13:48:55.158Z,35.04
2023-05-04T13:51:24.859Z,34.76
2023-05-04T13:53:52.459Z,34.93
2023-05-04T13:56:20.056Z,34.83
2023-05-04T13:58:47.736Z,34.08
2023-05-04T14:01:23.652Z,34.08
2023-05-04T14:03:51.896Z,33.79
2023-05-04T14:06:26.114Z,33.41
2023-05-04T14:08:54.872Z,33.30
2023-05-04T14:11:22.780Z,33.71
2023-05-04T14:13:54.096Z,34.09
2023-05-04T14:16:23.230Z,33.79
2023-05-04T14:18:52.615Z,33.68
2023-05-04T14:21:20.500Z,33.98
2023-05-04T14:23:50.761Z,33.64
2023-05-04T14:26:19.717Z,34.02
2023-05-04T14:28:48.289Z,33.87
2023-05-04T14:31:23.618Z,34.13
2023-05-04T14:33:55.313Z,34.63
2023-05-04T14:36:25.562Z,35.09
2023-05-04T14:38:53.984Z,35.29
2023-05-04T14:41:34.279Z,35.61
2023-05-04T14:44:02.001Z,35.82
2023-05-04T14:46:32.510Z,35.71
2023-05-04T14:49:01.712Z,35.60
2023-05-04T14:51:30.303Z,35.98
2023-05-04T14:53:59.820Z,36.30
2023-05-04T14:56:28.938Z,36.73
2023-05-04T14:58:57.823Z,37.05
2023-05-04T15:01:25.974Z,37.41
2023-05-04T15:03:55.281Z,37.49
2023-05-04T15:06:23.537Z,37.92
2023-05-04T15:08:52.487Z,38.22
2023-05-04T15:11:21.290Z,37.88
2023-05-04T15:13:49.671Z,37.66
2023-05-04T15:16:20.377Z,37.81
2023-05-04T15:18:50.388Z,38.15
2023-05-04T15:21:18.030Z,38.40
2023-05-04T15:23:50.111Z,38.30
2023-05-04T15:26:19.898Z,37.98
2023-05-04T15:28:49.320Z,37.89
2023-05-04T15:31:36.076Z,37.84
2023-05-04T15:34:04.994Z,37.73
2023-05-04T15:36:51.417Z,37.52
2023-05-04T15:39:19.099Z,37.74
2023-05-04T15:41:46.378Z,37.87
2023-05-04T15:44:15.615Z,38.01
2023-05-04T15:46:47.090Z,38.12
2023-05-04T15:49:15.828Z,37.82
2023-05-04T15:52:04.254Z,37.80
2023-05-04T15:54:36.682Z,38.49
2023-05-04T15:57:05.749Z,39.02
2023-05-04T15:59:33.264Z,39.14
2023-05-04T16:02:00.800Z,38.92
2023-05-04T16:04:29.037Z,38.95
2023-05-04T16:06:56.446Z,39.33
2023-05-04T16:09:24.394Z,39.76
2023-05-04T16:11:52.764Z,39.91
2023-05-04T16:14:21.238Z,40.12
2023-05-04T16:16:49.006Z,40.16
2023-05-04T16:19:18.793Z,40.45
2023-05-04T16:21:45.923Z,40.96
2023-05-04T16:24:15.738Z,40.99
2023-05-04T16:26:46.901Z,41.13
2023-05-04T16:29:14.701Z,41.56
2023-05-04T16:31:42.065Z,41.78
2023-05-04T16:34:15.283Z,41.95
2023-05-04T16:36:44.690Z,42.19
2023-05-04T16:39:30.190Z,42.47
2023-05-04T16:41:59.048Z,42.83
2023-05-04T16:44:27.541Z,42.82
2023-05-04T16:46:55.392Z,42.49
2023-05-04T16:49:23.127Z,42.52
2023-05-04T16:51:51.035Z,42.12
2023-05-04T16:54:21.212Z,42.61
2023-05-04T16:56:48.728Z,42.55
2023-05-04T16:59:18.488Z,43.14
2023-05-04T17:01:48.530Z,42.69
2023-05-04T17:04:16.963Z,42.98
2023-05-04T17:06:44.894Z,43.03
2023-05-04T17:09:12.667Z,42.90
2023-05-04T17:11:40.626Z,43.35
2023-05-04T17:14:10.890Z,43.42
2023-05-04T17:16:38.995Z,43.71
2023-05-04T17:19:10.211Z,43.70
2023-05-04T17:21:48.501Z,43.81
2023-05-04T17:24:15.798Z,44.48
2023-05-04T17:26:43.157Z,45.19
2023-05-04T17:29:11.224Z,45.40
2023-05-04T17:31:40.198Z,45.54
2023-05-04T17:34:09.373Z,45.71
2023-05-04T17:36:36.753Z,46.05
2023-05-04T17:39:05.969Z,46.28
2023-05-04T17:41:33.330Z,46.35
2023-05-04T17:44:02.982Z,46.34
2023-05-04T17:46:31.262Z,46.48
2023-05-04T17:49:00.418Z,46.61
2023-05-04T17:51:30.118Z,46.76
2023-05-04T17:53:58.717Z,46.94
2023-05-04T17:56:30.222Z,47.13
2023-05-04T17:59:02.936Z,47.25
2023-05-04T18:01:30.921Z,47.62
2023-05-04T18:03:59.272Z,48.00
2023-05-04T18:06:29.768Z,48.43
2023-05-04T18:09:01.168Z,49.27
2023-05-04T18:11:28.891Z,49.59
2023-05-04T18:13:57.242Z,49.34
2023-05-04T18:16:28.274Z,48.80
2023-05-04T18:18:58.436Z,48.65
2023-05-04T18:21:27.286Z,48.37
2023-05-04T18:23:55.396Z,48.25
2023-05-04T18:26:23.802Z,48.33
2023-05-04T18:29:07.677Z,48.12
2023-05-04T18:31:52.577Z,48.04
2023-05-04T18:34:25.978Z,48.13
2023-05-04T18:36:56.110Z,47.94
2023-05-04T18:39:41.333Z,48.13
2023-05-04T18:42:13.999Z,48.39
2023-05-04T18:44:45.981Z,48.43
2023-05-04T18:47:17.771Z,48.67
2023-05-04T18:49:56.969Z,48.93
2023-05-04T18:52:40.103Z,49.23
2023-05-04T18:55:31.137Z,50.12
2023-05-04T18:58:21.061Z,53.00
2023-05-04T19:01:15.849Z,55.33
2023-05-04T19:03:51.993Z,56.01
2023-05-04T19:06:25.922Z,57.03
2023-05-04T19:08:57.749Z,56.70
2023-05-04T19:11:29.782Z,55.34
2023-05-04T19:14:07.868Z,55.49
2023-05-04T19:16:41.331Z,55.37
2023-05-04T19:19:19.675Z,55.07
2023-05-04T19:21:57.905Z,56.09
2023-05-04T19:24:53.714Z,56.06
2023-05-04T19:27:26.786Z,57.52
2023-05-04T19:30:05.915Z,57.92
2023-05-04T19:32:39.917Z,58.57
2023-05-04T19:35:13.772Z,58.63
2023-05-04T19:37:46.752Z,58.65
2023-05-04T19:40:22.836Z,57.80
2023-05-04T19:43:02.819Z,56.67
2023-05-04T19:45:41.716Z,56.42
2023-05-04T19:56:00.224Z,57.54
2023-05-04T19:58:31.389Z,57.90
2023-05-04T20:00:59.264Z,58.54
2023-05-04T20:03:28.306Z,58.45
2023-05-04T20:05:57.408Z,57.95
2023-05-04T20:08:42.112Z,58.11
2023-05-04T20:11:10.890Z,58.11
2023-05-04T20:13:58.741Z,58.14
2023-05-04T20:16:28.809Z,58.77
2023-05-04T20:18:56.452Z,59.04
2023-05-04T20:21:23.816Z,59.66
2023-05-04T20:23:52.593Z,60.19
2023-05-04T20:26:20.191Z,60.59
2023-05-04T20:28:48.786Z,60.83
2023-05-04T20:31:16.059Z,61.37
2023-05-04T20:33:44.327Z,61.68
2023-05-04T20:36:12.718Z,61.17
2023-05-04T20:38:40.309Z,60.23
2023-05-04T20:41:08.263Z,60.25
2023-05-04T20:43:37.342Z,60.42
2023-05-04T20:46:05.980Z,61.55
2023-05-04T20:48:39.414Z,62.62
2023-05-04T20:51:14.390Z,62.81
2023-05-04T20:53:43.656Z,62.95
2023-05-04T20:56:10.870Z,62.46
2023-05-04T20:58:38.514Z,62.69
2023-05-04T21:01:06.670Z,63.10
2023-05-04T21:03:38.871Z,63.20
2023-05-04T21:06:07.099Z,63.82
2023-05-04T21:08:34.781Z,64.20
2023-05-04T21:11:13.749Z,64.25
2023-05-04T21:13:49.931Z,64.67
2023-05-04T21:16:25.925Z,64.92
2023-05-04T21:18:54.350Z,65.36
2023-05-04T21:21:29.745Z,65.70
2023-05-04T21:24:00.581Z,66.18
2023-05-04T21:26:31.201Z,65.76
2023-05-04T21:29:00.172Z,65.80
2023-05-04T21:31:27.398Z,65.86
2023-05-04T21:33:57.117Z,66.32
2023-05-04T21:36:25.027Z,66.42
2023-05-04T21:38:52.977Z,66.17
2023-05-04T21:41:22.990Z,66.30
2023-05-04T21:43:51.865Z,66.99
2023-05-04T21:46:40.007Z,67.25
2023-05-04T21:49:32.248Z,67.85
2023-05-04T21:52:00.311Z,68.33
2023-05-04T21:54:29.418Z,68.92
2023-05-04T21:57:15.937Z,68.60
2023-05-04T21:59:51.952Z,68.47
2023-05-04T22:02:39.344Z,68.25
2023-05-04T22:13:01.276Z,68.31
2023-05-04T22:15:38.241Z,68.74
2023-05-04T22:18:15.968Z,68.80
2023-05-04T22:20:48.930Z,69.13
2023-05-04T22:23:52.309Z,69.01
2023-05-04T22:26:25.230Z,68.81
2023-05-04T22:28:52.528Z,68.85
2023-05-04T22:31:39.652Z,68.47
2023-05-04T22:34:08.371Z,68.67
2023-05-04T22:36:41.008Z,69.20
2023-05-04T22:39:16.862Z,69.72
2023-05-04T22:42:03.925Z,70.17
2023-05-04T22:44:31.709Z,70.66
2023-05-04T22:47:03.193Z,70.90
2023-05-04T22:49:55.375Z,70.83
2023-05-04T22:52:24.033Z,71.03
2023-05-04T22:55:29.402Z,71.12
2023-05-04T22:57:58.108Z,71.15
2023-05-04T23:00:26.236Z,71.27
2023-05-04T23:02:54.247Z,71.31
2023-05-04T23:05:22.700Z,71.39
2023-05-04T23:07:51.196Z,71.65
2023-05-04T23:10:39.204Z,71.78
2023-05-04T23:13:06.489Z,71.66
2023-05-04T23:15:34.064Z,71.41
2023-05-04T23:18:03.816Z,71.24
2023-05-04T23:20:31.442Z,70.95
2023-05-04T23:22:59.452Z,70.99
2023-05-04T23:25:42.291Z,71.29
2023-05-04T23:28:10.150Z,71.24
2023-05-04T23:30:39.133Z,71.29
2023-05-04T23:33:06.411Z,71.36
2023-05-04T23:35:34.504Z,71.90
2023-05-04T23:38:04.314Z,71.81
2023-05-04T23:40:31.751Z,71.71
2023-05-04T23:43:07.147Z,71.93
2023-05-04T23:45:38.216Z,71.66
2023-05-04T23:48:06.872Z,71.86
2023-05-04T23:50:34.544Z,71.97
2023-05-04T23:53:05.721Z,71.57
2023-05-04T23:55:33.107Z,71.57
2023-05-04T23:58:36.683Z,71.48
